Time;durP1;ratioP1;P1;durP2;ratioP2;P2;SDS_P1;SDS_P2;PMS_P1;PMS_P2;Temp;Humidity;BMP_temperature;BMP_pressure;BME280_temperature;BME280_humidity;BME280_pressure;Samples;Min_cycle;Max_cycle;Signal;HPM_P1;HPM_P2
2021/01/06 00:00:24;;;;;;;18.45;11.63;;;;;;;;;;5099870;28;20028;-75
2021/01/06 00:02:49;;;;;;;18.05;11.40;;;;;;;;;;5100107;28;20027;-75
2021/01/06 00:05:16;;;;;;;21.02;12.60;;;;;;;;;;5099821;28;20527;-74
2021/01/06 00:07:43;;;;;;;20.75;11.63;;;;;;;;;;5081701;28;20118;-74
2021/01/06 00:10:09;;;;;;;20.80;11.88;;;;;;;;;;5099952;28;20032;-75
2021/01/06 00:12:35;;;;;;;21.45;12.45;;;;;;;;;;5098286;28;20040;-75
2021/01/06 00:15:00;;;;;;;19.65;12.15;;;;;;;;;;5081160;28;20032;-75
2021/01/06 00:17:26;;;;;;;19.27;11.65;;;;;;;;;;5081819;28;20085;-76
2021/01/06 00:19:52;;;;;;;19.67;12.27;;;;;;;;;;5100149;28;20440;-76
2021/01/06 00:22:18;;;;;;;15.43;9.20;;;;;;;;;;5081565;28;20039;-75
2021/01/06 00:24:43;;;;;;;16.55;9.95;;;;;;;;;;5099665;28;20119;-75
2021/01/06 00:27:14;;;;;;;18.08;10.70;;;;;;;;;;5099321;28;20062;-74
2021/01/06 00:29:40;;;;;;;18.00;11.52;;;;;;;;;;5099442;28;20588;-74
2021/01/06 00:32:05;;;;;;;15.45;9.27;;;;;;;;;;5099561;28;20063;-74
2021/01/06 00:34:31;;;;;;;14.85;9.57;;;;;;;;;;5096935;28;20038;-74
2021/01/06 00:36:57;;;;;;;18.45;10.27;;;;;;;;;;5096589;28;20036;-74
2021/01/06 00:39:22;;;;;;;15.20;10.00;;;;;;;;;;5096582;28;20043;-74
2021/01/06 00:41:48;;;;;;;19.98;11.30;;;;;;;;;;5096260;28;20031;-74
2021/01/06 00:44:14;;;;;;;20.27;11.60;;;;;;;;;;5077824;28;20131;-74
2021/01/06 00:46:42;;;;;;;16.83;11.25;;;;;;;;;;5096234;28;20115;-74
2021/01/06 00:49:07;;;;;;;18.20;11.80;;;;;;;;;;5061153;28;20036;-74
2021/01/06 00:51:33;;;;;;;18.85;12.23;;;;;;;;;;5077768;28;20032;-74
2021/01/06 00:54:01;;;;;;;20.13;12.27;;;;;;;;;;5074091;28;20040;-74
2021/01/06 00:56:29;;;;;;;21.05;11.85;;;;;;;;;;5074164;28;20032;-75
2021/01/06 00:58:56;;;;;;;23.25;13.52;;;;;;;;;;5091060;28;20037;-74
2021/01/06 01:01:22;;;;;;;18.98;11.93;;;;;;;;;;5074577;28;20043;-74
2021/01/06 01:03:48;;;;;;;21.63;12.57;;;;;;;;;;5090900;28;20071;-74
2021/01/06 01:06:22;;;;;;;22.58;12.45;;;;;;;;;;5074482;28;20055;-74
2021/01/06 01:08:48;;;;;;;20.95;13.57;;;;;;;;;;5075740;28;20474;-74
2021/01/06 01:11:13;;;;;;;21.63;13.38;;;;;;;;;;5090927;28;20119;-74
2021/01/06 01:13:38;;;;;;;25.85;14.48;;;;;;;;;;5074091;28;20407;-75
2021/01/06 01:16:04;;;;;;;22.77;13.50;;;;;;;;;;5075041;28;20040;-76
2021/01/06 01:18:33;;;;;;;20.90;13.90;;;;;;;;;;5090724;28;20075;-75
2021/01/06 01:20:58;;;;;;;21.10;14.10;;;;;;;;;;5075293;28;20047;-75
2021/01/06 01:23:25;;;;;;;22.23;14.27;;;;;;;;;;5074170;28;20471;-74
2021/01/06 01:25:51;;;;;;;22.27;13.52;;;;;;;;;;5090724;28;20033;-74
2021/01/06 01:28:18;;;;;;;23.63;14.45;;;;;;;;;;5090476;28;20486;-75
2021/01/06 01:30:43;;;;;;;22.70;14.07;;;;;;;;;;5074925;28;20466;-75
2021/01/06 01:33:09;;;;;;;22.23;13.75;;;;;;;;;;5075021;28;20035;-75
2021/01/06 01:35:35;;;;;;;21.20;12.73;;;;;;;;;;5075181;28;20033;-75
2021/01/06 01:38:02;;;;;;;20.77;13.23;;;;;;;;;;5090755;28;20050;-75
2021/01/06 01:40:32;;;;;;;20.10;12.90;;;;;;;;;;5074861;28;20052;-76
2021/01/06 01:43:06;;;;;;;23.02;12.80;;;;;;;;;;5074877;28;20516;-75
2021/01/06 01:45:55;;;;;;;20.88;12.65;;;;;;;;;;5074718;28;20064;-75
2021/01/06 01:48:23;;;;;;;20.27;12.68;;;;;;;;;;5064103;28;20103;-75
2021/01/06 01:50:49;;;;;;;22.95;12.98;;;;;;;;;;5074662;28;20031;-75
2021/01/06 01:53:19;;;;;;;23.27;12.77;;;;;;;;;;5074742;28;20090;-75
2021/01/06 01:55:46;;;;;;;24.50;13.68;;;;;;;;;;5094995;28;20036;-75
2021/01/06 01:58:16;;;;;;;22.90;13.50;;;;;;;;;;5094879;28;20064;-75
2021/01/06 02:00:42;;;;;;;21.23;13.02;;;;;;;;;;5093926;28;20043;-75
2021/01/06 02:03:17;;;;;;;21.20;13.18;;;;;;;;;;5076821;28;20028;-78
2021/01/06 02:05:57;;;;;;;23.13;13.15;;;;;;;;;;5094584;28;20060;-75
2021/01/06 02:08:35;;;;;;;23.10;13.07;;;;;;;;;;5094498;28;20036;-75
2021/01/06 02:11:10;;;;;;;28.90;14.30;;;;;;;;;;5094538;28;20042;-74
2021/01/06 02:13:47;;;;;;;24.80;13.60;;;;;;;;;;5076198;28;20135;-74
2021/01/06 02:16:24;;;;;;;20.27;12.27;;;;;;;;;;5094686;28;20047;-73
2021/01/06 02:18:50;;;;;;;24.42;14.25;;;;;;;;;;5076270;28;20107;-75
2021/01/06 02:21:17;;;;;;;26.13;15.15;;;;;;;;;;5076490;28;20110;-74
2021/01/06 02:23:46;;;;;;;27.55;14.85;;;;;;;;;;5094268;28;20440;-74
2021/01/06 02:26:11;;;;;;;27.58;15.07;;;;;;;;;;5094155;28;20119;-74
2021/01/06 02:28:37;;;;;;;30.55;15.75;;;;;;;;;;5094221;28;20118;-75
2021/01/06 02:31:03;;;;;;;27.58;15.55;;;;;;;;;;5076155;28;20032;-75
2021/01/06 02:33:30;;;;;;;29.85;16.58;;;;;;;;;;5093804;28;20040;-74
2021/01/06 02:35:55;;;;;;;29.48;16.17;;;;;;;;;;5075767;28;20390;-74
2021/01/06 02:38:21;;;;;;;29.42;16.17;;;;;;;;;;5093630;28;20039;-74
2021/01/06 02:40:47;;;;;;;32.88;16.35;;;;;;;;;;5093743;28;20031;-74
2021/01/06 02:43:13;;;;;;;33.13;17.70;;;;;;;;;;5093954;28;20032;-74
2021/01/06 02:45:38;;;;;;;31.27;17.25;;;;;;;;;;5075831;28;20028;-74
2021/01/06 02:48:04;;;;;;;29.75;16.08;;;;;;;;;;5093727;28;20040;-75
2021/01/06 02:50:32;;;;;;;29.85;15.98;;;;;;;;;;5075585;28;20496;-74
2021/01/06 02:53:01;;;;;;;31.52;17.00;;;;;;;;;;5093974;28;20031;-75
2021/01/06 02:55:29;;;;;;;29.65;16.13;;;;;;;;;;5075642;28;20048;-75
2021/01/06 02:57:57;;;;;;;28.10;16.75;;;;;;;;;;5075359;28;20040;-75
2021/01/06 03:00:25;;;;;;;29.73;16.77;;;;;;;;;;5075550;28;20447;-75
2021/01/06 03:02:51;;;;;;;32.00;17.40;;;;;;;;;;5093977;28;20032;-76
2021/01/06 03:05:19;;;;;;;28.90;17.33;;;;;;;;;;5093616;28;20023;-75
2021/01/06 03:07:45;;;;;;;28.42;15.98;;;;;;;;;;5093360;28;20059;-76
2021/01/06 03:10:16;;;;;;;30.45;17.08;;;;;;;;;;5093646;28;20028;-75
2021/01/06 03:12:42;;;;;;;28.27;17.00;;;;;;;;;;5093551;28;20063;-74
2021/01/06 03:15:08;;;;;;;29.20;15.57;;;;;;;;;;5092349;28;20047;-74
2021/01/06 03:17:34;;;;;;;29.10;16.25;;;;;;;;;;5075662;28;20036;-74
2021/01/06 03:20:03;;;;;;;29.83;16.55;;;;;;;;;;5093438;28;20359;-74
2021/01/06 03:22:30;;;;;;;31.10;17.33;;;;;;;;;;5093538;28;20036;-75
2021/01/06 03:25:02;;;;;;;30.25;16.80;;;;;;;;;;5075278;28;20125;-74
2021/01/06 03:27:30;;;;;;;25.45;15.55;;;;;;;;;;5093467;28;20028;-75
2021/01/06 03:29:56;;;;;;;26.05;15.45;;;;;;;;;;5093350;28;20031;-74
2021/01/06 03:32:29;;;;;;;29.55;16.25;;;;;;;;;;5093535;28;20123;-74
2021/01/06 03:34:59;;;;;;;27.80;16.15;;;;;;;;;;5093090;28;20047;-74
2021/01/06 03:37:37;;;;;;;27.40;16.40;;;;;;;;;;5092437;28;20059;-74
2021/01/06 03:40:08;;;;;;;30.88;17.02;;;;;;;;;;5093266;28;20397;-75
2021/01/06 03:42:34;;;;;;;30.42;16.73;;;;;;;;;;5093408;28;20035;-75
2021/01/06 03:45:00;;;;;;;31.77;15.77;;;;;;;;;;5093174;28;20020;-75
2021/01/06 03:47:30;;;;;;;25.65;15.07;;;;;;;;;;5093313;28;20040;-75
2021/01/06 03:49:58;;;;;;;26.70;15.87;;;;;;;;;;5093391;28;20094;-75
2021/01/06 03:52:35;;;;;;;27.20;16.02;;;;;;;;;;5075267;28;20074;-76
2021/01/06 03:55:04;;;;;;;29.45;16.38;;;;;;;;;;5093163;28;20079;-74
2021/01/06 03:57:30;;;;;;;29.08;15.82;;;;;;;;;;5075100;28;20032;-75
2021/01/06 03:59:56;;;;;;;28.10;15.95;;;;;;;;;;5075036;28;20036;-75
2021/01/06 04:02:35;;;;;;;29.85;16.55;;;;;;;;;;5093096;28;20082;-74
2021/01/06 04:05:19;;;;;;;28.10;15.55;;;;;;;;;;5093028;28;20032;-76
2021/01/06 04:07:48;;;;;;;25.88;15.18;;;;;;;;;;5093202;28;20044;-75
2021/01/06 04:10:23;;;;;;;25.50;15.25;;;;;;;;;;5096887;28;20024;-75
2021/01/06 04:13:02;;;;;;;28.30;16.25;;;;;;;;;;5078652;28;20063;-75
2021/01/06 04:15:35;;;;;;;27.73;15.88;;;;;;;;;;5096346;28;20043;-75
2021/01/06 04:18:09;;;;;;;24.75;15.55;;;;;;;;;;5096708;28;20024;-76
2021/01/06 04:20:38;;;;;;;26.95;15.25;;;;;;;;;;5096770;28;20085;-75
2021/01/06 04:23:06;;;;;;;27.88;16.02;;;;;;;;;;5096667;28;20024;-75
2021/01/06 04:25:51;;;;;;;28.73;15.50;;;;;;;;;;5096592;28;20036;-76
2021/01/06 04:28:26;;;;;;;25.45;15.07;;;;;;;;;;5096312;28;20040;-76
2021/01/06 04:30:52;;;;;;;27.85;15.45;;;;;;;;;;5096308;28;20068;-76
2021/01/06 04:33:17;;;;;;;29.25;16.27;;;;;;;;;;5096267;28;20145;-76
2021/01/06 04:35:43;;;;;;;28.73;15.23;;;;;;;;;;5096032;28;20086;-77
2021/01/06 04:38:13;;;;;;;28.13;15.02;;;;;;;;;;5096275;28;20497;-76
2021/01/06 04:40:40;;;;;;;26.17;14.60;;;;;;;;;;5096206;28;20187;-76
2021/01/06 04:43:13;;;;;;;25.55;15.50;;;;;;;;;;5096228;28;20082;-75
2021/01/06 04:45:40;;;;;;;27.02;15.65;;;;;;;;;;5096270;28;20123;-75
2021/01/06 04:48:06;;;;;;;24.95;14.35;;;;;;;;;;5095862;28;20035;-75
2021/01/06 04:50:45;;;;;;;26.20;15.02;;;;;;;;;;5095854;28;20036;-75
2021/01/06 04:53:29;;;;;;;28.30;15.20;;;;;;;;;;5095682;28;20066;-74
2021/01/06 04:56:07;;;;;;;28.25;15.35;;;;;;;;;;5095988;28;20044;-75
2021/01/06 04:58:51;;;;;;;27.50;16.75;;;;;;;;;;5095657;28;20040;-75
2021/01/06 05:01:29;;;;;;;29.17;17.10;;;;;;;;;;5095755;28;20040;-74
2021/01/06 05:03:54;;;;;;;34.63;19.85;;;;;;;;;;5096098;28;20545;-68
2021/01/06 05:06:25;;;;;;;41.85;25.95;;;;;;;;;;5096120;28;20032;-67
2021/01/06 05:08:52;;;;;;;37.60;21.83;;;;;;;;;;5096039;28;20050;-66
2021/01/06 05:11:18;;;;;;;30.88;18.10;;;;;;;;;;5095771;28;20343;-67
2021/01/06 05:14:04;;;;;;;36.60;21.10;;;;;;;;;;5095882;28;20047;-67
2021/01/06 05:16:35;;;;;;;34.38;18.63;;;;;;;;;;5095253;28;20040;-67
2021/01/06 05:19:03;;;;;;;27.77;16.98;;;;;;;;;;5095251;28;20107;-67
2021/01/06 05:21:29;;;;;;;29.55;17.52;;;;;;;;;;5076389;28;20040;-67
2021/01/06 05:24:00;;;;;;;31.92;18.77;;;;;;;;;;5095339;28;20468;-67
2021/01/06 05:26:26;;;;;;;33.35;19.15;;;;;;;;;;5095288;28;20124;-67
2021/01/06 05:28:52;;;;;;;30.83;19.63;;;;;;;;;;5095352;28;20106;-67
2021/01/06 05:31:17;;;;;;;45.65;23.95;;;;;;;;;;5095196;28;20047;-67
2021/01/06 05:33:47;;;;;;;35.30;19.45;;;;;;;;;;5094968;28;20020;-67
2021/01/06 05:36:20;;;;;;;31.23;18.38;;;;;;;;;;5077021;28;20028;-67
2021/01/06 05:38:45;;;;;;;31.02;20.30;;;;;;;;;;5093918;28;20044;-67
2021/01/06 05:41:11;;;;;;;33.67;22.15;;;;;;;;;;5076930;28;20070;-67
2021/01/06 05:43:41;;;;;;;37.95;25.17;;;;;;;;;;5094954;28;20036;-68
2021/01/06 05:46:07;;;;;;;;;;;;;;;;;;5095341;28;20122;-67
2021/01/06 05:48:35;;;;;;;60.45;24.73;;;;;;;;;;5094769;28;19939;-67
2021/01/06 05:51:07;;;;;;;85.63;36.90;;;;;;;;;;5076611;28;20494;-67
2021/01/06 05:53:46;;;;;;;63.97;30.35;;;;;;;;;;5094468;28;20090;-67
2021/01/06 05:56:32;;;;;;;65.03;30.05;;;;;;;;;;5076703;28;20516;-67
2021/01/06 05:59:03;;;;;;;35.45;21.45;;;;;;;;;;5087024;28;20459;-69
2021/01/06 06:01:28;;;;;;;30.73;16.80;;;;;;;;;;5076733;28;20505;-68
2021/01/06 06:04:03;;;;;;;39.17;19.98;;;;;;;;;;5094549;28;20032;-68
2021/01/06 06:07:07;;;;;;;37.40;21.58;;;;;;;;;;5076446;28;20048;-67
2021/01/06 06:09:39;;;;;;;34.78;20.65;;;;;;;;;;5052092;28;20075;-67
2021/01/06 06:12:05;;;;;;;34.88;17.58;;;;;;;;;;5051922;28;20037;-67
2021/01/06 06:14:50;;;;;;;33.10;18.42;;;;;;;;;;5055474;28;20546;-69
2021/01/06 06:17:25;;;;;;;39.28;19.63;;;;;;;;;;5094361;28;20474;-69
2021/01/06 06:19:50;;;;;;;49.75;22.05;;;;;;;;;;5076439;28;20036;-69
2021/01/06 06:22:24;;;;;;;36.55;21.90;;;;;;;;;;5094226;28;20550;-69
2021/01/06 06:24:55;;;;;;;76.18;36.95;;;;;;;;;;5094175;28;20554;-69
2021/01/06 06:27:30;;;;;;;43.75;24.20;;;;;;;;;;5094171;28;20072;-69
2021/01/06 06:30:04;;;;;;;31.25;19.92;;;;;;;;;;5076079;28;20123;-68
2021/01/06 06:32:30;;;;;;;29.05;17.85;;;;;;;;;;5094106;28;20036;-68
2021/01/06 06:35:02;;;;;;;23.20;13.88;;;;;;;;;;5093930;28;20027;-67
2021/01/06 06:37:27;;;;;;;20.88;12.68;;;;;;;;;;5075721;28;20039;-68
2021/01/06 06:39:56;;;;;;;23.60;16.50;;;;;;;;;;5093864;28;20017;-67
2021/01/06 06:42:36;;;;;;;19.52;12.57;;;;;;;;;;5093928;28;20040;-68
2021/01/06 06:45:04;;;;;;;24.48;14.25;;;;;;;;;;5088366;28;20108;-67
2021/01/06 06:47:50;;;;;;;23.23;12.60;;;;;;;;;;5074124;28;20087;-75
2021/01/06 06:50:33;;;;;;;18.80;12.40;;;;;;;;;;5092507;28;20046;-74
2021/01/06 06:53:06;;;;;;;20.73;12.93;;;;;;;;;;5075091;28;20040;-74
2021/01/06 06:55:58;;;;;;;22.35;13.30;;;;;;;;;;5092992;28;20090;-74
2021/01/06 06:58:43;;;;;;;22.35;13.88;;;;;;;;;;5058766;28;20127;-73
2021/01/06 07:01:10;;;;;;;25.95;15.38;;;;;;;;;;5093229;28;20024;-69
2021/01/06 07:03:37;;;;;;;22.08;12.75;;;;;;;;;;5093016;28;20020;-74
2021/01/06 07:06:07;;;;;;;21.20;12.57;;;;;;;;;;5074368;28;20387;-74
2021/01/06 07:08:36;;;;;;;20.58;11.13;;;;;;;;;;5093530;28;20123;-74
2021/01/06 07:11:04;;;;;;;19.08;11.65;;;;;;;;;;5093155;28;20043;-74
2021/01/06 07:13:32;;;;;;;23.48;13.57;;;;;;;;;;5074507;28;20020;-74
2021/01/06 07:16:02;;;;;;;20.92;12.93;;;;;;;;;;5074257;28;20064;-74
2021/01/06 07:18:32;;;;;;;18.73;11.90;;;;;;;;;;5092920;28;20102;-74
2021/01/06 07:21:16;;;;;;;17.63;11.45;;;;;;;;;;5074435;28;20931;-74
2021/01/06 07:23:47;;;;;;;17.83;11.20;;;;;;;;;;5091491;28;20040;-75
2021/01/06 07:26:21;;;;;;;20.92;11.25;;;;;;;;;;5092329;28;20127;-73
2021/01/06 07:28:47;;;;;;;20.05;11.15;;;;;;;;;;5092780;28;20028;-74
2021/01/06 07:31:24;;;;;;;17.52;11.63;;;;;;;;;;5092965;28;20032;-74
2021/01/06 07:33:56;;;;;;;18.13;10.65;;;;;;;;;;5092766;28;20064;-74
2021/01/06 07:36:28;;;;;;;17.63;11.70;;;;;;;;;;5092669;28;20398;-73
2021/01/06 07:38:54;;;;;;;19.08;11.65;;;;;;;;;;5092627;28;20100;-73
2021/01/06 07:41:21;;;;;;;20.98;13.35;;;;;;;;;;5093066;28;20024;-73
2021/01/06 07:44:02;;;;;;;22.95;14.48;;;;;;;;;;5076507;28;20040;-73
2021/01/06 07:46:31;;;;;;;26.60;15.05;;;;;;;;;;5096508;28;20044;-72
2021/01/06 07:48:56;;;;;;;25.88;14.48;;;;;;;;;;5096831;28;20028;-73
2021/01/06 07:51:27;;;;;;;27.50;15.95;;;;;;;;;;5095758;28;20043;-68
2021/01/06 07:53:58;;;;;;;28.17;16.25;;;;;;;;;;5095277;28;20398;-69
2021/01/06 07:56:46;;;;;;;28.63;16.30;;;;;;;;;;5094291;28;20501;-68
2021/01/06 07:59:38;;;;;;;26.90;15.90;;;;;;;;;;5095819;28;20032;-69
2021/01/06 08:02:10;;;;;;;30.90;19.10;;;;;;;;;;5093817;28;20467;-68
2021/01/06 08:04:46;;;;;;;40.47;22.45;;;;;;;;;;5096104;28;20043;-68
2021/01/06 08:07:16;;;;;;;32.95;18.85;;;;;;;;;;5078067;28;20044;-67
2021/01/06 08:09:42;;;;;;;30.60;16.60;;;;;;;;;;5077911;28;20559;-68
2021/01/06 08:12:13;;;;;;;35.20;19.98;;;;;;;;;;5095984;28;20386;-68
2021/01/06 08:14:39;;;;;;;30.92;17.52;;;;;;;;;;5095779;28;20043;-68
2021/01/06 08:17:15;;;;;;;27.17;15.93;;;;;;;;;;5095791;28;20031;-68
2021/01/06 08:19:46;;;;;;;59.33;36.70;;;;;;;;;;5077967;28;20062;-69
2021/01/06 08:22:11;;;;;;;;;;;;;;;;;;5062211;28;20036;-68
2021/01/06 08:24:44;;;;;;;24.92;16.30;;;;;;;;;;5096437;28;19904;-68
2021/01/06 08:27:15;;;;;;;26.67;16.95;;;;;;;;;;5078303;28;20063;-68
2021/01/06 08:29:41;;;;;;;34.65;21.48;;;;;;;;;;5096513;28;20486;-69
2021/01/06 08:32:23;;;;;;;32.35;17.27;;;;;;;;;;5096400;28;20032;-68
2021/01/06 08:34:57;;;;;;;26.20;17.13;;;;;;;;;;5096292;28;20040;-65
2021/01/06 08:37:23;;;;;;;22.08;14.15;;;;;;;;;;5095874;28;20032;-65
2021/01/06 08:39:56;;;;;;;22.63;14.32;;;;;;;;;;5075938;28;20031;-66
2021/01/06 08:42:43;;;;;;;24.17;15.18;;;;;;;;;;5077337;28;20101;-65
2021/01/06 08:45:19;;;;;;;27.50;18.80;;;;;;;;;;5095761;28;20035;-66
2021/01/06 08:51:30;;;;;;;21.88;14.25;;;;;;;;;;5096662;28;20169;-65
2021/01/06 09:00:57;;;;;;;19.73;14.23;;;;;;;;;;5096251;28;20038;-74
2021/01/06 09:07:04;;;;;;;25.10;16.83;;;;;;;;;;5096389;28;20097;-74
2021/01/06 09:13:09;;;;;;;19.33;14.23;;;;;;;;;;5096272;28;20035;-74
2021/01/06 09:19:13;;;;;;;25.58;16.45;;;;;;;;;;5095873;28;20023;-74
2021/01/06 09:25:15;;;;;;;55.88;32.53;;;;;;;;;;5096016;28;20039;-75
2021/01/06 09:31:16;;;;;;;39.33;23.63;;;;;;;;;;5095893;28;20026;-74
2021/01/06 09:37:23;;;;;;;27.77;20.85;;;;;;;;;;5095656;28;20074;-74
2021/01/06 09:43:38;;;;;;;31.08;22.20;;;;;;;;;;5095663;28;20528;-74
2021/01/06 09:49:42;;;;;;;92.57;43.30;;;;;;;;;;5095517;28;20078;-74
2021/01/06 09:55:44;;;;;;;24.98;17.13;;;;;;;;;;5095154;28;20047;-74
2021/01/06 10:04:56;;;;;;;24.08;15.10;;;;;;;;;;5095230;28;20123;-65
2021/01/06 10:32:09;;;;;;;32.83;22.15;;;;;;;;;;5072434;28;20019;-65
2021/01/06 14:17:41;;;;;;;38.08;20.77;;;;;;;;;;5072824;28;20064;-65
2021/01/06 14:20:29;;;;;;;50.28;27.63;;;;;;;;;;5052226;28;20029;-65
2021/01/06 14:23:11;;;;;;;104.32;54.03;;;;;;;;;;5034731;28;20041;-65
2021/01/06 14:25:45;;;;;;;110.55;57.03;;;;;;;;;;5046765;28;20134;-65
2021/01/06 14:28:47;;;;;;;132.18;60.65;;;;;;;;;;5053391;28;20037;-65
2021/01/06 14:31:15;;;;;;;164.00;81.22;;;;;;;;;;4972190;28;20538;-65
2021/01/06 14:33:50;;;;;;;161.70;80.18;;;;;;;;;;5038036;28;20441;-65
2021/01/06 14:36:24;;;;;;;123.90;60.35;;;;;;;;;;5035011;28;20473;-65
2021/01/06 14:38:56;;;;;;;83.55;43.50;;;;;;;;;;5053191;28;20420;-65
2021/01/06 14:41:36;;;;;;;89.45;45.13;;;;;;;;;;5035074;28;20068;-65
2021/01/06 14:44:08;;;;;;;113.47;58.03;;;;;;;;;;5051622;28;20037;-65
2021/01/06 14:46:48;;;;;;;120.82;70.72;;;;;;;;;;5035363;28;20033;-65
2021/01/06 14:49:33;;;;;;;128.35;80.68;;;;;;;;;;5052967;28;20360;-65
2021/01/06 14:52:12;;;;;;;107.22;66.32;;;;;;;;;;5034753;28;20029;-65
2021/01/06 14:54:56;;;;;;;100.93;63.95;;;;;;;;;;5052689;28;20448;-65
2021/01/06 14:57:38;;;;;;;71.85;44.30;;;;;;;;;;5053047;28;20518;-65
2021/01/06 15:00:13;;;;;;;71.43;41.90;;;;;;;;;;5034916;28;20839;-64
2021/01/06 15:02:41;;;;;;;66.75;40.17;;;;;;;;;;5051304;28;20487;-65
2021/01/06 15:05:07;;;;;;;71.72;42.60;;;;;;;;;;5052576;28;20344;-65
2021/01/06 15:07:38;;;;;;;64.90;40.95;;;;;;;;;;5052613;28;20041;-65
2021/01/06 15:10:24;;;;;;;62.83;39.97;;;;;;;;;;5070939;28;20032;-65
2021/01/06 15:13:02;;;;;;;66.85;41.65;;;;;;;;;;5061766;28;20039;-65
2021/01/06 15:15:37;;;;;;;77.88;46.63;;;;;;;;;;5058332;28;20057;-65
2021/01/06 15:18:10;;;;;;;111.30;68.43;;;;;;;;;;5087414;28;20064;-65
2021/01/06 15:20:40;;;;;;;152.02;95.70;;;;;;;;;;5092651;28;20487;-65
2021/01/06 15:23:08;;;;;;;264.90;159.80;;;;;;;;;;5092512;28;20028;-65
2021/01/06 15:25:53;;;;;;;201.93;124.03;;;;;;;;;;5074291;28;20051;-65
2021/01/06 15:28:32;;;;;;;253.50;146.35;;;;;;;;;;5092324;28;20059;-65
2021/01/06 15:30:57;;;;;;;206.00;123.30;;;;;;;;;;5092698;28;20089;-65
2021/01/06 15:33:26;;;;;;;139.50;90.60;;;;;;;;;;5092379;28;20735;-65
2021/01/06 15:35:52;;;;;;;131.32;84.97;;;;;;;;;;5074294;28;20401;-65
2021/01/06 15:38:20;;;;;;;136.60;87.82;;;;;;;;;;5092588;28;20032;-65
2021/01/06 15:40:47;;;;;;;139.05;88.55;;;;;;;;;;5092584;28;20122;-65
2021/01/06 15:43:21;;;;;;;145.93;89.35;;;;;;;;;;5092137;28;20513;-65
2021/01/06 15:45:47;;;;;;;148.32;84.28;;;;;;;;;;5092356;28;20077;-66
2021/01/06 15:48:23;;;;;;;141.23;82.95;;;;;;;;;;5092607;28;20107;-66
2021/01/06 15:51:03;;;;;;;158.43;93.50;;;;;;;;;;5092349;28;20043;-66
2021/01/06 15:53:37;;;;;;;225.95;137.82;;;;;;;;;;5092367;28;20040;-65
2021/01/06 15:56:07;;;;;;;203.18;120.53;;;;;;;;;;5074003;28;20044;-65
2021/01/06 15:58:33;;;;;;;207.95;121.70;;;;;;;;;;5074374;28;20040;-65
2021/01/06 16:00:59;;;;;;;174.35;104.35;;;;;;;;;;5074245;28;20039;-60
2021/01/06 16:03:25;;;;;;;171.82;97.88;;;;;;;;;;5092093;28;20025;-69
2021/01/06 16:06:11;;;;;;;151.05;93.38;;;;;;;;;;5077653;28;20030;-69
2021/01/06 16:08:37;;;;;;;144.55;86.22;;;;;;;;;;5077811;28;20123;-70
2021/01/06 16:11:04;;;;;;;129.45;77.35;;;;;;;;;;5077491;28;20047;-70
2021/01/06 16:13:38;;;;;;;144.20;78.43;;;;;;;;;;5096023;28;20578;-68
2021/01/06 16:16:09;;;;;;;134.18;72.32;;;;;;;;;;5095239;28;20047;-64
2021/01/06 16:18:34;;;;;;;126.78;69.50;;;;;;;;;;5095968;28;20101;-64
2021/01/06 16:21:26;;;;;;;123.22;66.63;;;;;;;;;;5095694;28;20070;-64
2021/01/06 16:23:54;;;;;;;109.00;58.97;;;;;;;;;;5093966;28;20126;-64
2021/01/06 16:26:29;;;;;;;103.30;56.75;;;;;;;;;;5096288;28;20024;-64
2021/01/06 16:28:57;;;;;;;97.93;57.50;;;;;;;;;;5095994;28;20036;-65
2021/01/06 16:31:23;;;;;;;96.75;57.88;;;;;;;;;;5095469;28;20031;-66
2021/01/06 16:33:48;;;;;;;95.63;55.80;;;;;;;;;;5095556;28;20040;-65
2021/01/06 16:36:35;;;;;;;127.88;75.32;;;;;;;;;;5077561;28;20028;-67
2021/01/06 16:39:17;;;;;;;118.20;68.90;;;;;;;;;;5095653;28;20485;-67
2021/01/06 16:41:46;;;;;;;111.65;67.65;;;;;;;;;;5095493;28;20040;-67
2021/01/06 16:44:18;;;;;;;109.40;68.88;;;;;;;;;;5094896;28;20439;-67
2021/01/06 16:46:45;;;;;;;102.05;61.45;;;;;;;;;;5110461;28;20032;-67
2021/01/06 16:49:23;;;;;;;109.00;67.82;;;;;;;;;;5115933;28;20035;-67
2021/01/06 16:51:51;;;;;;;84.05;52.15;;;;;;;;;;5115856;28;20044;-68
2021/01/06 16:54:21;;;;;;;74.35;47.35;;;;;;;;;;5115703;28;20394;-69
2021/01/06 16:56:52;;;;;;;71.50;44.22;;;;;;;;;;5097322;28;20055;-69
2021/01/06 16:59:18;;;;;;;71.97;44.53;;;;;;;;;;5115913;28;20063;-67
2021/01/06 17:01:54;;;;;;;73.65;45.83;;;;;;;;;;5115495;28;20031;-67
2021/01/06 17:04:20;;;;;;;110.65;65.45;;;;;;;;;;5115165;28;20035;-67
2021/01/06 17:06:46;;;;;;;108.75;62.85;;;;;;;;;;5097376;28;20477;-67
2021/01/06 17:09:20;;;;;;;102.35;51.03;;;;;;;;;;5097051;28;20047;-67
2021/01/06 17:12:06;;;;;;;116.18;61.90;;;;;;;;;;5115322;28;20036;-67
2021/01/06 17:14:40;;;;;;;116.88;66.35;;;;;;;;;;5115008;28;20398;-67
2021/01/06 17:17:25;;;;;;;126.32;76.18;;;;;;;;;;5095844;28;20078;-67
2021/01/06 17:19:53;;;;;;;123.88;75.53;;;;;;;;;;5097238;28;20031;-68
2021/01/06 17:22:23;;;;;;;122.53;73.57;;;;;;;;;;5115273;28;20027;-67
2021/01/06 17:24:49;;;;;;;142.45;83.38;;;;;;;;;;5107888;28;20072;-67
2021/01/06 17:27:25;;;;;;;120.30;70.70;;;;;;;;;;5076704;28;20020;-67
2021/01/06 17:30:22;;;;;;;99.78;56.55;;;;;;;;;;5094944;28;20040;-67
2021/01/06 17:33:03;;;;;;;95.47;53.78;;;;;;;;;;5059971;28;20482;-67
2021/01/06 17:35:29;;;;;;;105.45;59.28;;;;;;;;;;5094447;28;20032;-66
2021/01/06 17:37:57;;;;;;;114.13;67.35;;;;;;;;;;5094402;28;20382;-66
2021/01/06 17:40:23;;;;;;;106.93;68.13;;;;;;;;;;5094627;28;20028;-67
2021/01/06 17:42:53;;;;;;;105.00;64.63;;;;;;;;;;5094184;28;20024;-67
2021/01/06 17:45:19;;;;;;;75.82;46.95;;;;;;;;;;5094303;28;20044;-67
2021/01/06 17:47:45;;;;;;;61.08;34.90;;;;;;;;;;5094668;28;20032;-68
2021/01/06 17:50:12;;;;;;;77.40;41.97;;;;;;;;;;5076202;28;20075;-68
2021/01/06 17:52:38;;;;;;;210.27;77.03;;;;;;;;;;5093933;28;20067;-68
2021/01/06 17:55:04;;;;;;;453.52;168.48;;;;;;;;;;5075635;28;20058;-67
2021/01/06 17:57:30;;;;;;;311.73;120.82;;;;;;;;;;5094166;28;20028;-68
2021/01/06 18:00:01;;;;;;;326.00;127.78;;;;;;;;;;5075965;28;20482;-68
2021/01/06 18:02:29;;;;;;;233.38;98.63;;;;;;;;;;5075598;28;20036;-67
2021/01/06 18:05:03;;;;;;;219.38;95.55;;;;;;;;;;5093832;28;20545;-68
2021/01/06 18:07:30;;;;;;;215.23;90.97;;;;;;;;;;5075634;28;20059;-68
2021/01/06 18:09:55;;;;;;;234.32;95.90;;;;;;;;;;5094260;28;20077;-70
2021/01/06 18:12:27;;;;;;;212.98;83.75;;;;;;;;;;5094035;28;20036;-70
2021/01/06 18:14:53;;;;;;;191.75;77.03;;;;;;;;;;5094193;28;20398;-71
2021/01/06 18:17:23;;;;;;;159.00;69.70;;;;;;;;;;5093960;28;20040;-71
2021/01/06 18:19:49;;;;;;;181.48;83.38;;;;;;;;;;5075859;28;20032;-71
2021/01/06 18:22:14;;;;;;;187.57;86.90;;;;;;;;;;5093539;28;20035;-70
2021/01/06 18:24:40;;;;;;;155.43;77.72;;;;;;;;;;5093868;28;20363;-70
2021/01/06 18:27:07;;;;;;;145.50;74.70;;;;;;;;;;5093523;28;20020;-70
2021/01/06 18:29:32;;;;;;;152.57;77.25;;;;;;;;;;5093908;28;20508;-70
2021/01/06 18:32:11;;;;;;;155.98;76.78;;;;;;;;;;5093630;28;20028;-70
2021/01/06 18:34:40;;;;;;;153.75;76.20;;;;;;;;;;5093516;28;20032;-70
2021/01/06 18:37:12;;;;;;;171.20;78.90;;;;;;;;;;5093538;28;20032;-70
2021/01/06 18:39:38;;;;;;;168.48;78.28;;;;;;;;;;5075209;28;20047;-67
2021/01/06 18:42:04;;;;;;;83.22;47.00;;;;;;;;;;5093105;28;20024;-68
2021/01/06 18:44:33;;;;;;;68.78;38.47;;;;;;;;;;5093247;28;20043;-68
2021/01/06 18:47:06;;;;;;;64.70;37.55;;;;;;;;;;5092994;28;20549;-67
2021/01/06 18:49:33;;;;;;;68.13;36.50;;;;;;;;;;5075225;28;20040;-68
2021/01/06 18:52:00;;;;;;;64.82;37.70;;;;;;;;;;5092900;28;20107;-68
2021/01/06 18:54:32;;;;;;;93.25;50.20;;;;;;;;;;5093298;28;20534;-68
2021/01/06 18:57:06;;;;;;;117.75;59.08;;;;;;;;;;5093088;28;20044;-68
2021/01/06 18:59:32;;;;;;;136.98;72.50;;;;;;;;;;5092286;28;20484;-68
2021/01/06 19:01:58;;;;;;;138.50;73.93;;;;;;;;;;5085493;28;20060;-68
2021/01/06 19:04:24;;;;;;;94.55;54.03;;;;;;;;;;5072422;28;20028;-68
2021/01/06 19:06:50;;;;;;;71.97;42.15;;;;;;;;;;5063826;28;20107;-68
2021/01/06 19:09:29;;;;;;;73.82;43.17;;;;;;;;;;5070257;28;20051;-68
2021/01/06 19:12:04;;;;;;;66.75;40.53;;;;;;;;;;5054522;28;20041;-68
2021/01/06 19:14:30;;;;;;;72.70;43.85;;;;;;;;;;5072410;28;20132;-68
2021/01/06 19:17:18;;;;;;;60.70;38.80;;;;;;;;;;5087996;28;20123;-68
2021/01/06 19:20:13;;;;;;;70.90;42.83;;;;;;;;;;5074294;28;20032;-68
2021/01/06 19:22:53;;;;;;;58.60;35.38;;;;;;;;;;5080580;28;20051;-71
2021/01/06 19:25:19;;;;;;;61.08;36.60;;;;;;;;;;5091528;28;20032;-71
2021/01/06 19:28:05;;;;;;;62.60;36.47;;;;;;;;;;5080973;28;20060;-71
2021/01/06 19:30:39;;;;;;;129.27;66.68;;;;;;;;;;5063301;28;20128;-71
2021/01/06 19:33:05;;;;;;;147.05;71.18;;;;;;;;;;5076752;28;20475;-71